Sunday, April 22, 2018, 5:42 PM EDT
Back to Local

KACK, Nantucket Memorial Airport

Location: Nantucket, MA, United States Lat: 41.25
Local Time: 5:42 PM EDT (21:42 GMT) Lon: -70.067
Time Zone: US/Eastern Elev: 49 ft

Show me the last for .
Show Decoded

2018-04-22 16:53 METAR KACK 222053Z 23009KT 10SM CLR 10/M01 A3034 RMK AO2 SLP275 T01001011 55001
                 =
2018-04-22 15:53 METAR KACK 221953Z 23010KT 10SM CLR 11/01 A3034 RMK AO2 SLP274 T01060011 =
2018-04-22 14:53 METAR KACK 221853Z 23010KT 10SM CLR 12/00 A3034 RMK AO2 SLP273 T01170000 =
2018-04-22 13:53 METAR KACK 221753Z 23014KT 10SM CLR 13/M04 A3035 RMK AO2 SLP276 T01281039 10133
                 20089 56003 =
2018-04-22 12:53 METAR KACK 221653Z VRB04KT 10SM CLR 13/M05 A3035 RMK AO2 SLP278 T01281050 =
2018-04-22 11:53 METAR KACK 221553Z 32008KT 10SM CLR 13/M06 A3035 RMK AO2 SLP277 T01331056 =
2018-04-22 10:53 METAR KACK 221453Z 33007KT 10SM CLR 12/M06 A3036 RMK AO2 SLP279 T01171056 51006
                 =
2018-04-22 09:53 METAR KACK 221353Z 33010KT 10SM CLR 11/M04 A3035 RMK AO2 SLP277 T01111044 =
2018-04-22 08:53 METAR KACK 221253Z 32009KT 10SM CLR 11/M01 A3035 RMK AO2 SLP277 T01061006 =
2018-04-22 07:53 METAR KACK 221153Z 33006KT 10SM CLR 09/02 A3034 RMK AO2 SLP274 T00890022 10089
                 20028 51014 =
2018-04-22 06:53 METAR KACK 221053Z 33006KT 10SM CLR 06/04 A3033 RMK AO2 SLP270 T00610039 =
2018-04-22 05:53 METAR KACK 220953Z 33006KT 10SM CLR 03/02 A3031 RMK AO2 SLP264 T00330022 =
2018-04-22 04:53 METAR KACK 220853Z AUTO 35007KT 10SM CLR 04/02 A3030 RMK AO2 SLP260 T00440022
                 51005 =
2018-04-22 03:53 METAR KACK 220753Z AUTO 35008KT 10SM CLR 06/02 A3030 RMK AO2 SLP259 T00560022 =
2018-04-22 02:53 METAR KACK 220653Z AUTO 34009KT 10SM CLR 06/03 A3029 RMK AO2 SLP256 T00560028 =
2018-04-22 01:53 METAR KACK 220553Z AUTO 33006KT 10SM CLR 05/03 A3028 RMK AO2 SLP255 T00500033
                 10061 20039 52001 =
2018-04-22 00:53 METAR KACK 220453Z AUTO 30006KT 10SM CLR 04/04 A3029 RMK AO2 SLP255 T00440044
                 401110039 =
2018-04-21 23:53 METAR KACK 220353Z AUTO 27008KT 10SM BKN100 06/04 A3028 RMK AO2 SLP253 T00560044
                 =
2018-04-21 22:53 METAR KACK 220253Z AUTO 24005KT 10SM FEW100 05/03 A3028 RMK AO2 SLP254 T00500033
                 50002 =
2018-04-21 21:53 METAR KACK 220153Z AUTO 21007KT 10SM SCT095 06/03 A3029 RMK AO2 SLP256 T00610028
                 =
2018-04-21 20:53 METAR KACK 220053Z AUTO 21005KT 10SM CLR 04/03 A3029 RMK AO2 SLP257 T00440028 =
2018-04-21 19:53 METAR KACK 212353Z 18006KT 10SM CLR 06/03 A3027 RMK AO2 SLP251 T00560028 10106
                 20056 53008 =
2018-04-21 18:53 METAR KACK 212253Z 21007KT 10SM CLR 07/03 A3025 RMK AO2 SLP242 T00670033 =
2018-04-21 17:53 METAR KACK 212153Z 23008KT 10SM CLR 08/03 A3024 RMK AO2 SLP241 T00780028 =

Support USWX by starting your Amazon purchase here.